createdAt,value
2022-10-03T00:00:02.078Z,1019.46
2022-10-03T00:01:02.048Z,1019.48
2022-10-03T00:02:02.080Z,1019.52
2022-10-03T00:03:02.112Z,1019.53
2022-10-03T00:04:02.017Z,1019.58
2022-10-03T00:05:02.013Z,1019.64
2022-10-03T00:06:01.980Z,1019.60
2022-10-03T00:07:01.971Z,1019.64
2022-10-03T00:08:01.964Z,1019.62
2022-10-03T00:09:01.954Z,1019.62
2022-10-03T00:10:01.949Z,1019.66
2022-10-03T00:11:01.924Z,1019.63
2022-10-03T00:12:01.914Z,1019.64
2022-10-03T00:13:01.909Z,1019.65
2022-10-03T00:14:01.899Z,1019.66
2022-10-03T00:15:01.924Z,1019.66
2022-10-03T00:16:01.981Z,1019.64
2022-10-03T00:17:01.860Z,1019.69
2022-10-03T00:18:01.851Z,1019.67
2022-10-03T00:19:01.844Z,1019.68
2022-10-03T00:20:01.825Z,1019.71
2022-10-03T00:21:01.831Z,1019.69
2022-10-03T00:22:01.807Z,1019.73
2022-10-03T00:23:01.801Z,1019.71
2022-10-03T00:24:01.798Z,1019.78
2022-10-03T00:25:01.773Z,1019.77
2022-10-03T00:26:01.776Z,1019.75
2022-10-03T00:27:01.750Z,1019.76
2022-10-03T00:28:01.775Z,1019.83
2022-10-03T00:29:01.720Z,1019.84
2022-10-03T00:30:01.714Z,1019.87
2022-10-03T00:31:01.941Z,1019.88
2022-10-03T00:32:01.709Z,1019.86
2022-10-03T00:33:01.687Z,1019.88
2022-10-03T00:34:01.666Z,1019.84
2022-10-03T00:35:01.660Z,1019.85
2022-10-03T00:36:01.662Z,1019.86
2022-10-03T00:37:01.635Z,1019.86
2022-10-03T00:38:01.624Z,1019.85
2022-10-03T00:39:01.612Z,1019.90
2022-10-03T00:40:01.605Z,1019.90
2022-10-03T00:41:01.614Z,1019.87
2022-10-03T00:42:01.573Z,1019.89
2022-10-03T00:43:01.560Z,1019.88
2022-10-03T00:44:01.550Z,1019.88
2022-10-03T00:45:01.541Z,1019.87
2022-10-03T00:46:01.545Z,1019.88
2022-10-03T00:47:01.597Z,1019.87
2022-10-03T00:48:01.511Z,1019.91
2022-10-03T00:49:01.499Z,1019.90
2022-10-03T00:50:01.482Z,1019.93
2022-10-03T00:51:01.506Z,1019.98
2022-10-03T00:52:01.460Z,1019.93
2022-10-03T00:53:01.455Z,1019.93
2022-10-03T00:54:01.443Z,1019.93
2022-10-03T00:55:01.437Z,1019.95
2022-10-03T00:56:01.419Z,1019.95
2022-10-03T00:57:01.423Z,1019.97
2022-10-03T00:58:01.401Z,1019.95
2022-10-03T00:59:01.387Z,1020.00
2022-10-03T01:00:01.373Z,1019.96
2022-10-03T01:01:01.440Z,1020.01
2022-10-03T01:02:01.387Z,1019.94
2022-10-03T01:03:01.463Z,1019.95
2022-10-03T01:04:01.327Z,1019.93
2022-10-03T01:05:01.319Z,1019.93
2022-10-03T01:06:01.307Z,1019.97
2022-10-03T01:07:01.309Z,1019.97
2022-10-03T01:08:01.279Z,1019.96
2022-10-03T01:09:01.273Z,1019.96
2022-10-03T01:10:01.261Z,1019.98
2022-10-03T01:11:01.250Z,1019.98
2022-10-03T01:12:01.242Z,1019.95
2022-10-03T01:13:01.230Z,1019.97
2022-10-03T01:14:01.207Z,1019.97
2022-10-03T01:15:01.203Z,1020.01
2022-10-03T01:16:01.286Z,1020.04
2022-10-03T01:17:01.197Z,1020.05
2022-10-03T01:18:01.168Z,1020.06
2022-10-03T01:19:01.184Z,1020.07
2022-10-03T01:20:01.150Z,1020.05
2022-10-03T01:21:01.154Z,1020.05
2022-10-03T01:22:01.140Z,1020.05
2022-10-03T01:23:01.113Z,1020.03
2022-10-03T01:24:01.104Z,1020.04
2022-10-03T01:25:01.091Z,1020.03
2022-10-03T01:26:01.072Z,1020.02
2022-10-03T01:27:01.079Z,1020.04
2022-10-03T01:28:01.126Z,1020.04
2022-10-03T01:29:01.045Z,1020.01
2022-10-03T01:30:01.034Z,1020.02
2022-10-03T01:31:01.084Z,1020.01
2022-10-03T01:32:01.020Z,1020.00
2022-10-03T01:33:01.000Z,1020.00
2022-10-03T01:34:00.989Z,1020.02
2022-10-03T01:35:00.993Z,1019.99
2022-10-03T01:36:00.966Z,1019.97
2022-10-03T01:37:00.969Z,1020.00
2022-10-03T01:38:00.939Z,1019.99
2022-10-03T01:39:00.927Z,1020.02
2022-10-03T01:40:00.923Z,1019.98
2022-10-03T01:41:00.912Z,1019.97
2022-10-03T01:42:00.908Z,1019.99
2022-10-03T01:43:00.880Z,1020.00
2022-10-03T01:44:00.870Z,1020.02
2022-10-03T01:45:00.857Z,1020.05
2022-10-03T01:46:00.853Z,1020.04
2022-10-03T01:47:00.866Z,1020.00
2022-10-03T01:48:00.822Z,1020.02
2022-10-03T01:49:00.823Z,1019.97
2022-10-03T01:50:00.813Z,1020.00
2022-10-03T01:51:00.811Z,1019.98
2022-10-03T01:52:00.786Z,1019.98
2022-10-03T01:53:00.780Z,1020.00
2022-10-03T01:54:00.756Z,1019.99
2022-10-03T01:55:00.751Z,1019.99
2022-10-03T01:56:00.732Z,1020.01
2022-10-03T01:57:00.722Z,1020.01
2022-10-03T01:58:00.725Z,1020.04
2022-10-03T01:59:00.707Z,1020.08
2022-10-03T02:00:00.687Z,1020.02
2022-10-03T02:01:00.765Z,1020.07
2022-10-03T02:02:00.707Z,1020.08
2022-10-03T02:03:00.665Z,1020.10
2022-10-03T02:04:00.639Z,1020.09
2022-10-03T02:05:00.636Z,1020.12
2022-10-03T02:06:00.635Z,1020.08
2022-10-03T02:07:00.643Z,1020.18
2022-10-03T02:08:00.613Z,1020.17
2022-10-03T02:09:00.672Z,1020.18
2022-10-03T02:10:00.571Z,1020.20
2022-10-03T02:11:00.574Z,1020.27
2022-10-03T02:12:00.559Z,1020.27
2022-10-03T02:13:00.566Z,1020.28
2022-10-03T02:14:00.532Z,1020.29
2022-10-03T02:15:00.523Z,1020.35
2022-10-03T02:16:00.542Z,1020.28
2022-10-03T02:17:00.502Z,1020.31
2022-10-03T02:18:00.505Z,1020.30
2022-10-03T02:19:00.478Z,1020.36
2022-10-03T02:20:00.459Z,1020.39
2022-10-03T02:21:00.450Z,1020.37
2022-10-03T02:22:00.439Z,1020.38
2022-10-03T02:23:00.459Z,1020.39
2022-10-03T02:24:00.422Z,1020.43
2022-10-03T02:25:00.412Z,1020.43
2022-10-03T02:26:00.398Z,1020.39
2022-10-03T02:27:00.378Z,1020.43
2022-10-03T02:28:00.445Z,1020.47
2022-10-03T02:29:00.357Z,1020.39
2022-10-03T02:30:00.344Z,1020.37
2022-10-03T02:31:00.333Z,1020.36
2022-10-03T02:32:00.356Z,1020.33
2022-10-03T02:33:00.336Z,1020.33
2022-10-03T02:34:00.308Z,1020.35
2022-10-03T02:35:00.295Z,1020.32
2022-10-03T02:36:00.276Z,1020.31
2022-10-03T02:37:00.267Z,1020.33
2022-10-03T02:38:00.273Z,1020.33
2022-10-03T02:39:00.270Z,1020.34
2022-10-03T02:40:00.233Z,1020.35
2022-10-03T02:41:00.219Z,1020.37
2022-10-03T02:42:00.207Z,1020.35
2022-10-03T02:43:00.210Z,1020.34
2022-10-03T02:44:00.187Z,1020.34
2022-10-03T02:45:00.180Z,1020.28
2022-10-03T02:46:00.250Z,1020.31
2022-10-03T02:47:00.149Z,1020.34
2022-10-03T02:48:27.099Z,1020.32
2022-10-03T02:49:01.134Z,1020.35
2022-10-03T02:50:00.144Z,1020.33
2022-10-03T02:51:00.104Z,1020.31
2022-10-03T02:52:00.110Z,1020.32
2022-10-03T02:53:00.098Z,1020.30
2022-10-03T02:54:00.090Z,1020.29
2022-10-03T02:55:00.114Z,1020.25
2022-10-03T02:56:00.060Z,1020.29
2022-10-03T02:57:00.035Z,1020.31
2022-10-03T02:58:00.036Z,1020.30
2022-10-03T02:59:00.021Z,1020.35
2022-10-03T03:00:00.007Z,1020.34
2022-10-03T03:01:00.080Z,1020.34
2022-10-03T03:02:00.061Z,1020.34
2022-10-03T03:02:59.980Z,1020.33
2022-10-03T03:03:59.962Z,1020.37
2022-10-03T03:04:59.952Z,1020.35
2022-10-03T03:05:59.943Z,1020.32
2022-10-03T03:06:59.923Z,1020.36
2022-10-03T03:07:59.933Z,1020.35
2022-10-03T03:08:59.898Z,1020.38
2022-10-03T03:09:59.894Z,1020.38
2022-10-03T03:10:59.913Z,1020.39
2022-10-03T03:11:59.864Z,1020.41
2022-10-03T03:12:59.870Z,1020.41
2022-10-03T03:13:59.841Z,1020.41
2022-10-03T03:14:59.837Z,1020.45
2022-10-03T03:15:59.899Z,1020.46
2022-10-03T03:16:59.813Z,1020.47
2022-10-03T03:17:59.810Z,1020.50
2022-10-03T03:18:59.784Z,1020.55
2022-10-03T03:19:59.781Z,1020.57
2022-10-03T03:20:59.772Z,1020.57
2022-10-03T03:21:59.751Z,1020.58
2022-10-03T03:22:59.759Z,1020.61
2022-10-03T03:23:59.748Z,1020.60
2022-10-03T03:24:59.725Z,1020.60
2022-10-03T03:25:59.713Z,1020.61
2022-10-03T03:26:59.814Z,1020.58
2022-10-03T03:27:59.821Z,1020.59
2022-10-03T03:28:59.671Z,1020.58
2022-10-03T03:29:59.676Z,1020.64
2022-10-03T03:30:59.654Z,1020.66
2022-10-03T03:31:59.761Z,1020.66
2022-10-03T03:32:59.650Z,1020.74
2022-10-03T03:33:59.641Z,1020.71
2022-10-03T03:34:59.609Z,1020.72
2022-10-03T03:35:59.597Z,1020.73
2022-10-03T03:36:59.586Z,1020.77
2022-10-03T03:37:59.603Z,1020.74
2022-10-03T03:38:59.566Z,1020.72
2022-10-03T06:45:12.705Z,1021.65
2022-10-03T06:46:12.743Z,1021.62
2022-10-03T06:47:12.649Z,1021.58
2022-10-03T06:48:12.643Z,1021.64
2022-10-03T06:49:12.623Z,1021.63
2022-10-03T06:50:12.614Z,1021.58
2022-10-03T06:51:12.616Z,1021.62
2022-10-03T06:52:12.607Z,1021.58
2022-10-03T06:53:12.581Z,1021.60
2022-10-03T06:54:12.577Z,1021.61
2022-10-03T06:55:12.566Z,1021.59
2022-10-03T06:56:12.559Z,1021.59
2022-10-03T06:57:12.540Z,1021.56
2022-10-03T06:58:12.523Z,1021.54
2022-10-03T06:59:12.510Z,1021.59
2022-10-03T07:00:12.511Z,1021.54
2022-10-03T07:01:12.567Z,1021.51
2022-10-03T07:02:12.518Z,1021.53
2022-10-03T07:03:12.474Z,1021.53
2022-10-03T07:04:12.456Z,1021.53
2022-10-03T07:05:12.450Z,1021.56
2022-10-03T07:06:12.449Z,1021.57
2022-10-03T07:07:12.433Z,1021.55
2022-10-03T07:08:12.430Z,1021.53
2022-10-03T07:09:12.407Z,1021.56
2022-10-03T07:10:12.399Z,1021.57
2022-10-03T07:11:12.402Z,1021.57
2022-10-03T07:12:14.361Z,1021.59
2022-10-03T07:13:12.360Z,1021.60
2022-10-03T07:14:12.367Z,1021.55
2022-10-03T07:15:12.336Z,1021.54
2022-10-03T07:16:26.634Z,1021.58
2022-10-03T07:17:13.357Z,1021.61
2022-10-03T07:18:12.319Z,1021.62
2022-10-03T07:19:12.301Z,1021.64
2022-10-03T07:20:12.291Z,1021.66
2022-10-03T07:21:16.597Z,1021.68
2022-10-03T07:22:12.263Z,1021.73
2022-10-03T07:23:12.261Z,1021.73
2022-10-03T07:24:12.232Z,1021.73
2022-10-03T07:25:12.238Z,1021.75
2022-10-03T07:26:12.219Z,1021.72
2022-10-03T07:27:12.206Z,1021.74
2022-10-03T07:28:12.235Z,1021.71
2022-10-03T07:29:12.194Z,1021.73
2022-10-03T07:30:12.172Z,1021.73
2022-10-03T07:31:12.224Z,1021.76
2022-10-03T07:32:12.147Z,1021.77
2022-10-03T07:33:12.156Z,1021.77
2022-10-03T07:34:12.120Z,1021.79
2022-10-03T07:35:12.114Z,1021.79
2022-10-03T07:36:12.113Z,1021.75
2022-10-03T07:37:12.093Z,1021.79
2022-10-03T07:38:12.083Z,1021.76
2022-10-03T07:39:12.065Z,1021.82
2022-10-03T07:40:12.053Z,1021.82
2022-10-03T07:41:12.072Z,1021.85
2022-10-03T07:42:12.054Z,1021.88
2022-10-03T07:43:12.021Z,1021.90
2022-10-03T07:44:12.015Z,1021.89
2022-10-03T07:45:12.003Z,1021.91
2022-10-03T07:46:12.048Z,1021.91
2022-10-03T07:47:11.995Z,1021.95
2022-10-03T07:48:11.988Z,1021.91
2022-10-03T07:49:16.230Z,1021.90
2022-10-03T07:50:12.950Z,1021.92
2022-10-03T07:51:11.931Z,1021.88
2022-10-03T07:52:11.959Z,1021.92
2022-10-03T07:53:11.922Z,1021.92
2022-10-03T07:54:11.895Z,1021.93
2022-10-03T07:55:11.889Z,1021.91
2022-10-03T07:56:11.879Z,1021.95
2022-10-03T07:57:11.872Z,1021.97
2022-10-03T07:58:11.890Z,1022.00
2022-10-03T07:59:11.850Z,1021.98
2022-10-03T08:00:11.828Z,1022.00
2022-10-03T08:01:11.820Z,1022.05
2022-10-03T08:02:11.804Z,1022.07
2022-10-03T08:03:11.958Z,1022.08
2022-10-03T08:04:11.780Z,1022.10
2022-10-03T08:05:11.807Z,1022.05
2022-10-03T08:06:11.768Z,1022.07
2022-10-03T08:07:11.751Z,1022.06
2022-10-03T08:08:11.751Z,1022.03
2022-10-03T08:09:11.761Z,1022.02
2022-10-03T08:10:11.715Z,1021.99
2022-10-03T08:11:11.704Z,1022.02
2022-10-03T08:12:11.701Z,1022.02
2022-10-03T08:13:11.686Z,1021.99
2022-10-03T08:14:11.677Z,1022.00
2022-10-03T08:15:11.665Z,1022.06
2022-10-03T08:16:11.707Z,1022.07
2022-10-03T08:17:11.640Z,1022.04
2022-10-03T08:18:11.641Z,1022.07
2022-10-03T08:19:11.618Z,1022.10
2022-10-03T08:20:11.603Z,1022.10
2022-10-03T08:21:11.714Z,1022.11
2022-10-03T08:22:11.579Z,1022.08
2022-10-03T08:23:11.579Z,1022.08
2022-10-03T08:24:11.562Z,1022.12
2022-10-03T08:25:11.552Z,1022.12
2022-10-03T08:26:11.534Z,1022.15
2022-10-03T08:27:11.524Z,1022.17
2022-10-03T08:28:11.636Z,1022.17
2022-10-03T08:29:11.507Z,1022.15
2022-10-03T08:30:11.491Z,1022.17
2022-10-03T08:31:11.536Z,1022.19
2022-10-03T08:32:11.475Z,1022.22
2022-10-03T08:33:11.467Z,1022.18
2022-10-03T08:34:11.445Z,1022.18
2022-10-03T08:35:11.440Z,1022.18
2022-10-03T08:36:11.445Z,1022.17
2022-10-03T08:37:11.434Z,1022.21
2022-10-03T08:38:11.414Z,1022.16
2022-10-03T08:39:11.398Z,1022.19
2022-10-03T08:40:11.375Z,1022.19
2022-10-03T08:41:11.373Z,1022.19
2022-10-03T08:42:11.354Z,1022.22
2022-10-03T08:43:11.359Z,1022.20
2022-10-03T08:44:11.340Z,1022.18
2022-10-03T08:45:11.322Z,1022.17
2022-10-03T08:46:11.367Z,1022.15
2022-10-03T08:47:11.309Z,1022.16
2022-10-03T08:48:11.305Z,1022.15
2022-10-03T08:49:11.282Z,1022.15
2022-10-03T08:50:11.268Z,1022.13
2022-10-03T08:51:11.276Z,1022.19
2022-10-03T08:52:11.248Z,1022.18
2022-10-03T08:53:11.273Z,1022.19
2022-10-03T08:54:11.228Z,1022.14
2022-10-03T08:55:11.228Z,1022.14
2022-10-03T08:56:11.204Z,1022.13
2022-10-03T08:57:11.193Z,1022.16
2022-10-03T08:58:11.195Z,1022.11
2022-10-03T08:59:11.165Z,1022.12
2022-10-03T09:00:11.153Z,1022.08
2022-10-03T09:01:11.209Z,1022.08
2022-10-03T09:02:11.281Z,1022.11
2022-10-03T09:03:32.579Z,1022.12
2022-10-03T09:04:12.108Z,1022.12
2022-10-03T09:05:11.103Z,1022.12
2022-10-03T09:06:11.090Z,1022.13
2022-10-03T09:07:19.219Z,1022.12
2022-10-03T09:08:12.077Z,1022.13
2022-10-03T09:09:11.083Z,1022.14
2022-10-03T09:10:11.049Z,1022.16
2022-10-03T09:11:11.040Z,1022.17
2022-10-03T09:12:11.027Z,1022.16
2022-10-03T09:13:11.029Z,1022.12
2022-10-03T09:14:11.000Z,1022.11
2022-10-03T09:15:10.991Z,1022.17
2022-10-03T09:16:14.853Z,1022.14
2022-10-03T09:17:11.966Z,1022.15
2022-10-03T09:18:10.969Z,1022.14
2022-10-03T09:19:10.956Z,1022.14
2022-10-03T09:20:10.930Z,1022.12
2022-10-03T09:21:10.921Z,1022.09
2022-10-03T09:22:10.911Z,1022.09
2022-10-03T09:23:10.924Z,1022.08
2022-10-03T09:24:10.896Z,1022.09
2022-10-03T09:25:10.923Z,1022.09
2022-10-03T09:26:10.876Z,1022.06
2022-10-03T09:27:10.856Z,1022.09
2022-10-03T09:28:11.070Z,1022.07
2022-10-03T09:29:10.834Z,1022.07
2022-10-03T09:30:10.827Z,1022.09
2022-10-03T09:31:10.866Z,1022.08
2022-10-03T09:32:10.952Z,1022.04
2022-10-03T09:33:10.804Z,1022.10
2022-10-03T09:34:10.785Z,1022.10
2022-10-03T09:35:10.764Z,1022.08
2022-10-03T09:36:10.752Z,1022.08
2022-10-03T09:37:10.751Z,1022.12
2022-10-03T09:38:10.748Z,1022.14
2022-10-03T09:39:10.719Z,1022.14
2022-10-03T09:40:10.707Z,1022.11
2022-10-03T09:41:10.719Z,1022.13
2022-10-03T09:42:10.685Z,1022.10
2022-10-03T09:43:10.697Z,1022.10
2022-10-03T09:44:10.669Z,1022.01
2022-10-03T09:45:10.659Z,1022.04
2022-10-03T09:46:10.683Z,1022.04
2022-10-03T09:47:10.635Z,1022.05
2022-10-03T09:48:10.644Z,1022.06
2022-10-03T09:49:10.615Z,1021.98
2022-10-03T09:50:10.602Z,1021.99
2022-10-03T09:51:10.589Z,1021.96
2022-10-03T09:52:10.572Z,1021.90
2022-10-03T09:53:10.578Z,1021.97
2022-10-03T09:54:10.558Z,1021.95
2022-10-03T09:55:10.539Z,1021.96
2022-10-03T09:56:10.529Z,1021.95
2022-10-03T09:57:10.552Z,1021.94
2022-10-03T09:58:10.515Z,1021.93
2022-10-03T09:59:10.497Z,1021.90
2022-10-03T10:00:10.489Z,1021.91
2022-10-03T10:01:10.509Z,1021.91
2022-10-03T10:02:10.467Z,1021.88
2022-10-03T10:03:10.474Z,1021.88
2022-10-03T10:04:10.556Z,1021.94
2022-10-03T10:05:10.442Z,1021.93
2022-10-03T10:06:10.416Z,1021.90
2022-10-03T10:07:10.406Z,1021.86
2022-10-03T10:08:10.398Z,1021.88
2022-10-03T10:09:10.409Z,1021.91
2022-10-03T10:10:10.382Z,1021.89
2022-10-03T10:11:10.372Z,1021.85
2022-10-03T10:12:10.350Z,1021.86
2022-10-03T10:13:10.363Z,1021.87
2022-10-03T10:14:10.353Z,1021.90
2022-10-03T10:15:10.323Z,1021.91
2022-10-03T10:16:10.347Z,1021.88
2022-10-03T10:17:10.296Z,1021.86
2022-10-03T10:18:10.311Z,1021.87
2022-10-03T10:19:10.300Z,1021.84
2022-10-03T10:20:10.268Z,1021.82
2022-10-03T10:21:10.258Z,1021.88
2022-10-03T10:22:10.266Z,1021.80
2022-10-03T10:23:10.237Z,1021.80
2022-10-03T10:24:10.229Z,1021.83
2022-10-03T10:25:10.207Z,1021.81
2022-10-03T10:26:10.205Z,1021.81
2022-10-03T10:27:10.188Z,1021.84
2022-10-03T10:28:10.272Z,1021.86
2022-10-03T10:29:10.205Z,1021.84
2022-10-03T10:30:10.154Z,1021.81
2022-10-03T10:31:10.213Z,1021.84
2022-10-03T10:32:10.137Z,1021.84
2022-10-03T10:33:10.119Z,1021.85
2022-10-03T10:34:10.122Z,1021.80
2022-10-03T10:35:10.099Z,1021.79
2022-10-03T10:36:10.089Z,1021.79
2022-10-03T10:37:10.871Z,1021.73
2022-10-03T10:38:10.067Z,1021.74
2022-10-03T10:39:10.073Z,1021.74
2022-10-03T10:40:10.044Z,1021.73
2022-10-03T10:41:10.034Z,1021.67
2022-10-03T10:42:10.022Z,1021.70
2022-10-03T10:43:12.562Z,1021.72
2022-10-03T10:44:11.033Z,1021.69
2022-10-03T10:45:10.118Z,1021.72
2022-10-03T10:46:10.014Z,1021.75
2022-10-03T10:47:10.052Z,1021.79
2022-10-03T10:48:09.963Z,1021.77
2022-10-03T10:49:09.945Z,1021.79
2022-10-03T10:50:09.955Z,1021.77
2022-10-03T10:51:09.930Z,1021.78
2022-10-03T10:52:09.911Z,1021.74
2022-10-03T10:53:09.902Z,1021.74
2022-10-03T10:54:09.891Z,1021.76
2022-10-03T10:55:09.892Z,1021.76
2022-10-03T10:56:09.881Z,1021.70
2022-10-03T10:57:09.862Z,1021.75
2022-10-03T10:58:09.854Z,1021.73
2022-10-03T10:59:09.841Z,1021.73
2022-10-03T11:00:09.838Z,1021.72
2022-10-03T11:01:09.921Z,1021.77
2022-10-03T11:02:09.800Z,1021.75
2022-10-03T11:03:09.798Z,1021.79
2022-10-03T11:04:09.820Z,1021.72
2022-10-03T11:05:09.783Z,1021.72
2022-10-03T11:06:09.754Z,1021.69
2022-10-03T11:07:09.753Z,1021.65
2022-10-03T11:08:09.739Z,1021.66
2022-10-03T11:09:09.729Z,1021.72
2022-10-03T11:10:09.715Z,1021.66
2022-10-03T11:11:09.714Z,1021.66
2022-10-03T11:12:09.698Z,1021.66
2022-10-03T11:13:09.686Z,1021.66
2022-10-03T11:14:09.672Z,1021.65
2022-10-03T11:15:09.664Z,1021.63
2022-10-03T11:16:09.707Z,1021.63
2022-10-03T11:17:09.671Z,1021.63
2022-10-03T11:18:09.633Z,1021.61
2022-10-03T11:19:09.627Z,1021.58
2022-10-03T11:20:09.601Z,1021.56
2022-10-03T11:21:09.613Z,1021.58
2022-10-03T11:22:09.587Z,1021.57
2022-10-03T11:23:09.569Z,1021.61
2022-10-03T11:24:09.573Z,1021.62
2022-10-03T11:25:09.553Z,1021.57
2022-10-03T11:26:09.548Z,1021.54
2022-10-03T11:27:09.525Z,1021.53
2022-10-03T11:28:09.581Z,1021.53
2022-10-03T11:29:09.512Z,1021.52
2022-10-03T11:30:09.496Z,1021.50
2022-10-03T11:31:09.523Z,1021.52
2022-10-03T11:32:09.468Z,1021.54
2022-10-03T11:33:09.483Z,1021.54
2022-10-03T11:34:09.455Z,1021.49
2022-10-03T11:35:09.442Z,1021.52
2022-10-03T11:36:09.446Z,1021.51
2022-10-03T11:37:09.425Z,1021.51
2022-10-03T11:38:09.410Z,1021.48
2022-10-03T11:39:09.392Z,1021.49
2022-10-03T11:40:09.385Z,1021.51
2022-10-03T11:41:09.366Z,1021.46
2022-10-03T11:42:09.368Z,1021.42
2022-10-03T11:43:09.344Z,1021.46
2022-10-03T11:44:09.339Z,1021.46
2022-10-03T11:45:09.322Z,1021.45
2022-10-03T11:46:09.370Z,1021.51
2022-10-03T11:47:09.317Z,1021.54
2022-10-03T11:48:09.287Z,1021.53
2022-10-03T11:49:09.310Z,1021.51
2022-10-03T11:50:09.271Z,1021.48
2022-10-03T11:51:09.258Z,1021.50
2022-10-03T11:52:09.264Z,1021.45
2022-10-03T11:53:09.232Z,1021.40
2022-10-03T11:54:29.986Z,1021.41
2022-10-03T11:55:10.212Z,1021.37
2022-10-03T11:56:09.200Z,1021.40
2022-10-03T11:57:09.211Z,1021.39
2022-10-03T11:58:09.177Z,1021.39
2022-10-03T11:59:09.174Z,1021.41
2022-10-03T12:00:09.155Z,1021.39
2022-10-03T12:01:09.150Z,1021.38
2022-10-03T12:02:09.230Z,1021.35
2022-10-03T12:03:09.179Z,1021.36
2022-10-03T12:04:09.111Z,1021.29
2022-10-03T12:05:09.124Z,1021.34
2022-10-03T12:06:09.089Z,1021.37
2022-10-03T12:07:09.077Z,1021.39
2022-10-03T12:08:09.095Z,1021.38
2022-10-03T12:09:09.062Z,1021.37
2022-10-03T12:10:09.046Z,1021.40
2022-10-03T12:11:09.042Z,1021.39
2022-10-03T12:12:09.028Z,1021.37
2022-10-03T12:13:09.029Z,1021.37
2022-10-03T12:14:11.524Z,1021.37
2022-10-03T12:15:08.990Z,1021.37
2022-10-03T12:16:09.051Z,1021.39
2022-10-03T12:17:08.970Z,1021.42
2022-10-03T12:18:08.977Z,1021.42
2022-10-03T12:19:08.955Z,1021.39
2022-10-03T12:20:08.942Z,1021.43
2022-10-03T12:21:08.990Z,1021.43
2022-10-03T12:22:08.912Z,1021.40
2022-10-03T12:23:08.921Z,1021.36
2022-10-03T12:24:08.893Z,1021.35
2022-10-03T12:25:08.886Z,1021.39
2022-10-03T12:26:08.868Z,1021.31
2022-10-03T12:27:08.858Z,1021.33
2022-10-03T12:28:08.932Z,1021.33
2022-10-03T12:29:08.836Z,1021.25
2022-10-03T12:30:08.827Z,1021.29
2022-10-03T12:31:08.813Z,1021.26
2022-10-03T12:32:08.845Z,1021.27
2022-10-03T12:33:08.808Z,1021.29
2022-10-03T12:34:08.793Z,1021.27
2022-10-03T12:35:08.777Z,1021.22
2022-10-03T12:36:08.764Z,1021.20
2022-10-03T12:37:08.780Z,1021.25
2022-10-03T12:38:08.756Z,1021.25
2022-10-03T12:39:08.763Z,1021.25
2022-10-03T12:40:08.713Z,1021.21
2022-10-03T12:41:08.712Z,1021.22
2022-10-03T12:42:08.694Z,1021.22
2022-10-03T12:43:08.703Z,1021.25
2022-10-03T12:44:08.678Z,1021.24
2022-10-03T12:45:08.704Z,1021.19
2022-10-03T12:46:08.711Z,1021.21
2022-10-03T12:47:08.642Z,1021.22
2022-10-03T12:48:08.652Z,1021.20
2022-10-03T12:49:08.639Z,1021.18
2022-10-03T12:50:08.605Z,1021.17
2022-10-03T12:51:08.638Z,1021.13
2022-10-03T12:52:08.585Z,1021.15
2022-10-03T12:53:08.617Z,1021.09
2022-10-03T12:54:08.570Z,1021.16
2022-10-03T12:55:08.558Z,1021.18
2022-10-03T12:56:08.547Z,1021.14
2022-10-03T12:57:08.536Z,1021.21
2022-10-03T12:58:08.541Z,1021.22
2022-10-03T12:59:08.515Z,1021.21
2022-10-03T13:00:08.523Z,1021.19
2022-10-03T13:01:08.575Z,1021.15
2022-10-03T13:02:08.546Z,1021.14
2022-10-03T13:03:08.476Z,1021.08
2022-10-03T13:04:08.458Z,1021.08
2022-10-03T13:05:08.449Z,1021.10
2022-10-03T13:06:08.440Z,1021.11
2022-10-03T13:07:08.428Z,1021.10
2022-10-03T13:08:08.425Z,1021.11
2022-10-03T13:09:08.416Z,1021.11
2022-10-03T13:10:08.387Z,1021.10
2022-10-03T13:11:08.380Z,1021.11
2022-10-03T13:12:08.368Z,1021.14
2022-10-03T13:13:08.374Z,1021.08
2022-10-03T13:14:08.359Z,1021.08
2022-10-03T13:15:08.330Z,1021.09
2022-10-03T13:16:08.382Z,1021.07
2022-10-03T13:17:08.313Z,1021.12
2022-10-03T13:18:08.314Z,1021.12
2022-10-03T13:19:08.294Z,1021.09
2022-10-03T13:20:08.273Z,1021.09
2022-10-03T13:21:26.650Z,1021.16
2022-10-03T13:22:09.259Z,1021.13
2022-10-03T13:23:08.260Z,1021.14
2022-10-03T13:24:08.239Z,1021.09
2022-10-03T13:25:08.239Z,1021.15
2022-10-03T13:26:11.825Z,1021.11
2022-10-03T13:27:09.198Z,1021.18
2022-10-03T13:28:08.297Z,1021.16
2022-10-03T13:29:08.178Z,1021.12
2022-10-03T13:30:08.175Z,1021.08
2022-10-03T13:31:08.257Z,1021.12
2022-10-03T13:32:08.153Z,1021.14
2022-10-03T13:33:08.152Z,1021.15
2022-10-03T13:34:08.124Z,1021.10
2022-10-03T13:35:08.113Z,1021.13
2022-10-03T13:36:08.113Z,1021.12
2022-10-03T13:37:08.096Z,1021.11
2022-10-03T13:38:08.093Z,1021.04
2022-10-03T13:39:08.125Z,1021.04
2022-10-03T13:40:08.205Z,1021.00
2022-10-03T13:41:08.072Z,1021.06
2022-10-03T13:42:08.041Z,1020.99
2022-10-03T13:43:08.050Z,1021.00
2022-10-03T13:44:08.014Z,1020.95
2022-10-03T13:45:08.009Z,1020.98
2022-10-03T13:46:08.122Z,1020.93
2022-10-03T13:47:07.986Z,1020.92
2022-10-03T13:48:07.983Z,1020.90
2022-10-03T13:49:07.958Z,1020.89
2022-10-03T13:50:08.041Z,1020.89
2022-10-03T13:51:07.933Z,1020.88
2022-10-03T13:52:07.929Z,1020.93
2022-10-03T13:53:08.023Z,1020.87
2022-10-03T13:54:07.914Z,1020.90
2022-10-03T13:55:07.910Z,1020.91
2022-10-03T13:56:07.888Z,1020.90
2022-10-03T13:57:07.908Z,1020.88
2022-10-03T13:58:07.858Z,1020.93
2022-10-03T13:59:07.864Z,1020.97
2022-10-03T14:00:07.942Z,1020.95
2022-10-03T14:01:07.941Z,1020.97
2022-10-03T14:02:07.906Z,1020.90
2022-10-03T14:03:07.801Z,1020.90
2022-10-03T14:04:07.817Z,1020.93
2022-10-03T14:05:07.779Z,1020.89
2022-10-03T14:06:07.773Z,1020.84
2022-10-03T14:07:07.762Z,1020.84
2022-10-03T14:08:07.745Z,1020.84
2022-10-03T14:09:07.749Z,1020.83
2022-10-03T14:10:07.810Z,1020.83
2022-10-03T14:11:07.721Z,1020.76
2022-10-03T14:12:07.709Z,1020.72
2022-10-03T14:13:07.716Z,1020.79
2022-10-03T14:14:07.706Z,1020.73
2022-10-03T14:15:07.668Z,1020.69
2022-10-03T14:16:07.739Z,1020.67
2022-10-03T14:17:07.653Z,1020.68
2022-10-03T14:18:07.641Z,1020.71
2022-10-03T14:19:07.624Z,1020.70
2022-10-03T14:20:07.759Z,1020.74
2022-10-03T14:21:07.612Z,1020.74
2022-10-03T14:22:07.592Z,1020.73
2022-10-03T14:23:07.583Z,1020.70
2022-10-03T14:24:07.569Z,1020.70
2022-10-03T14:25:07.579Z,1020.63
2022-10-03T14:26:07.548Z,1020.68
2022-10-03T14:27:07.553Z,1020.65
2022-10-03T14:28:07.674Z,1020.68
2022-10-03T14:29:07.547Z,1020.60
2022-10-03T14:30:07.593Z,1020.63
2022-10-03T14:31:07.740Z,1020.66
2022-10-03T14:32:22.592Z,1020.72
2022-10-03T14:33:08.468Z,1020.69
2022-10-03T14:34:07.473Z,1020.70
2022-10-03T14:35:07.466Z,1020.68
2022-10-03T14:36:07.437Z,1020.68
2022-10-03T14:37:07.427Z,1020.69
2022-10-03T14:38:07.419Z,1020.68
2022-10-03T14:39:07.423Z,1020.65
2022-10-03T14:40:07.448Z,1020.65
2022-10-03T14:41:07.381Z,1020.63
2022-10-03T14:42:07.372Z,1020.62
2022-10-03T14:43:07.360Z,1020.60
2022-10-03T14:44:12.901Z,1020.65
2022-10-03T14:45:08.391Z,1020.63
2022-10-03T14:46:07.375Z,1020.65
2022-10-03T14:47:07.325Z,1020.64
2022-10-03T14:48:07.305Z,1020.59
2022-10-03T14:49:17.155Z,1020.59
2022-10-03T14:50:08.307Z,1020.59
2022-10-03T14:51:07.271Z,1020.59
2022-10-03T14:52:07.270Z,1020.58
2022-10-03T14:53:07.987Z,1020.55
2022-10-03T14:54:07.247Z,1020.52
2022-10-03T14:55:07.360Z,1020.51
2022-10-03T14:56:07.216Z,1020.57
2022-10-03T14:57:07.219Z,1020.52
2022-10-03T14:58:11.761Z,1020.48
2022-10-03T14:59:07.190Z,1020.45
2022-10-03T15:00:07.182Z,1020.43
2022-10-03T15:01:07.200Z,1020.45
2022-10-03T15:02:07.251Z,1020.44
2022-10-03T15:03:07.222Z,1020.50
2022-10-03T15:04:07.138Z,1020.41
2022-10-03T15:05:07.123Z,1020.45
2022-10-03T15:06:07.131Z,1020.43
2022-10-03T15:07:07.096Z,1020.40
2022-10-03T15:08:07.094Z,1020.35
2022-10-03T15:09:07.072Z,1020.33
2022-10-03T15:10:07.094Z,1020.29